sensor_id;sensor_type;location;lat;lon;timestamp;P1;durP1;ratioP1;P2;durP2;ratioP2
46757;SDS011;32509;47.750;-3.396;2024-02-21T00:02:24;631.75;;;580.92;;
46757;SDS011;32509;47.750;-3.396;2024-02-21T00:04:50;618.13;;;567.65;;
46757;SDS011;32509;47.750;-3.396;2024-02-21T00:07:17;617.92;;;566.85;;
46757;SDS011;32509;47.750;-3.396;2024-02-21T00:09:43;633.70;;;583.20;;
46757;SDS011;32509;47.750;-3.396;2024-02-21T00:12:09;642.83;;;591.30;;
46757;SDS011;32509;47.750;-3.396;2024-02-21T00:14:35;661.33;;;608.97;;
46757;SDS011;32509;47.750;-3.396;2024-02-21T00:17:01;659.65;;;606.35;;
46757;SDS011;32509;47.750;-3.396;2024-02-21T00:19:27;651.70;;;598.17;;
46757;SDS011;32509;47.750;-3.396;2024-02-21T00:21:53;660.45;;;605.95;;
46757;SDS011;32509;47.750;-3.396;2024-02-21T00:24:19;663.88;;;609.00;;
46757;SDS011;32509;47.750;-3.396;2024-02-21T00:26:45;656.15;;;602.65;;
46757;SDS011;32509;47.750;-3.396;2024-02-21T00:29:11;651.78;;;597.70;;
46757;SDS011;32509;47.750;-3.396;2024-02-21T00:31:37;637.58;;;584.42;;
46757;SDS011;32509;47.750;-3.396;2024-02-21T00:34:03;640.42;;;587.58;;
46757;SDS011;32509;47.750;-3.396;2024-02-21T00:36:30;635.95;;;583.60;;
46757;SDS011;32509;47.750;-3.396;2024-02-21T00:38:56;641.85;;;590.22;;
46757;SDS011;32509;47.750;-3.396;2024-02-21T00:41:22;625.75;;;572.42;;
46757;SDS011;32509;47.750;-3.396;2024-02-21T00:43:48;639.20;;;586.47;;
46757;SDS011;32509;47.750;-3.396;2024-02-21T00:46:15;639.33;;;586.00;;
46757;SDS011;32509;47.750;-3.396;2024-02-21T00:48:41;658.42;;;604.58;;
46757;SDS011;32509;47.750;-3.396;2024-02-21T00:51:07;687.65;;;631.03;;
46757;SDS011;32509;47.750;-3.396;2024-02-21T00:53:33;694.20;;;637.45;;
46757;SDS011;32509;47.750;-3.396;2024-02-21T00:56:03;669.40;;;614.13;;
46757;SDS011;32509;47.750;-3.396;2024-02-21T00:58:30;671.88;;;617.03;;
46757;SDS011;32509;47.750;-3.396;2024-02-21T01:00:56;673.95;;;618.75;;
46757;SDS011;32509;47.750;-3.396;2024-02-21T01:03:22;665.40;;;610.17;;
46757;SDS011;32509;47.750;-3.396;2024-02-21T01:05:48;665.95;;;611.63;;
46757;SDS011;32509;47.750;-3.396;2024-02-21T01:08:14;683.20;;;627.75;;
46757;SDS011;32509;47.750;-3.396;2024-02-21T01:10:40;685.63;;;629.72;;
46757;SDS011;32509;47.750;-3.396;2024-02-21T01:13:06;666.20;;;612.05;;
46757;SDS011;32509;47.750;-3.396;2024-02-21T01:15:32;672.78;;;618.55;;
46757;SDS011;32509;47.750;-3.396;2024-02-21T01:17:58;670.00;;;615.80;;
46757;SDS011;32509;47.750;-3.396;2024-02-21T01:20:24;684.28;;;628.25;;
46757;SDS011;32509;47.750;-3.396;2024-02-21T01:22:50;658.97;;;604.53;;
46757;SDS011;32509;47.750;-3.396;2024-02-21T01:25:17;668.83;;;615.83;;
46757;SDS011;32509;47.750;-3.396;2024-02-21T01:27:43;666.88;;;612.90;;
46757;SDS011;32509;47.750;-3.396;2024-02-21T01:30:09;658.38;;;603.97;;
46757;SDS011;32509;47.750;-3.396;2024-02-21T01:32:38;667.92;;;613.33;;
46757;SDS011;32509;47.750;-3.396;2024-02-21T01:35:04;666.10;;;610.85;;
46757;SDS011;32509;47.750;-3.396;2024-02-21T01:37:31;671.60;;;616.83;;
46757;SDS011;32509;47.750;-3.396;2024-02-21T01:39:57;670.45;;;614.67;;
46757;SDS011;32509;47.750;-3.396;2024-02-21T01:42:23;667.85;;;612.22;;
46757;SDS011;32509;47.750;-3.396;2024-02-21T01:44:49;682.22;;;625.35;;
46757;SDS011;32509;47.750;-3.396;2024-02-21T01:47:16;688.17;;;630.45;;
46757;SDS011;32509;47.750;-3.396;2024-02-21T01:49:42;661.40;;;606.13;;
46757;SDS011;32509;47.750;-3.396;2024-02-21T01:52:08;681.88;;;624.72;;
46757;SDS011;32509;47.750;-3.396;2024-02-21T01:54:37;685.10;;;627.85;;
46757;SDS011;32509;47.750;-3.396;2024-02-21T01:57:03;679.65;;;623.17;;
46757;SDS011;32509;47.750;-3.396;2024-02-21T01:59:29;694.38;;;636.30;;
46757;SDS011;32509;47.750;-3.396;2024-02-21T02:01:55;682.10;;;625.42;;
46757;SDS011;32509;47.750;-3.396;2024-02-21T02:04:22;679.25;;;622.60;;
46757;SDS011;32509;47.750;-3.396;2024-02-21T02:06:48;681.88;;;624.70;;
46757;SDS011;32509;47.750;-3.396;2024-02-21T02:09:14;683.85;;;626.35;;
46757;SDS011;32509;47.750;-3.396;2024-02-21T02:11:40;673.70;;;617.95;;
46757;SDS011;32509;47.750;-3.396;2024-02-21T02:14:08;673.78;;;617.78;;
46757;SDS011;32509;47.750;-3.396;2024-02-21T02:16:34;682.83;;;625.88;;
46757;SDS011;32509;47.750;-3.396;2024-02-21T02:19:00;664.67;;;608.90;;
46757;SDS011;32509;47.750;-3.396;2024-02-21T02:21:29;641.53;;;585.00;;
46757;SDS011;32509;47.750;-3.396;2024-02-21T02:23:56;665.47;;;609.95;;
46757;SDS011;32509;47.750;-3.396;2024-02-21T02:26:22;655.83;;;600.47;;
46757;SDS011;32509;47.750;-3.396;2024-02-21T02:28:48;665.25;;;608.25;;
46757;SDS011;32509;47.750;-3.396;2024-02-21T02:31:14;691.65;;;632.50;;
46757;SDS011;32509;47.750;-3.396;2024-02-21T02:33:42;686.00;;;630.60;;
46757;SDS011;32509;47.750;-3.396;2024-02-21T02:36:09;678.58;;;623.50;;
46757;SDS011;32509;47.750;-3.396;2024-02-21T02:38:35;676.45;;;620.38;;
46757;SDS011;32509;47.750;-3.396;2024-02-21T02:41:02;677.55;;;620.60;;
46757;SDS011;32509;47.750;-3.396;2024-02-21T02:43:28;668.70;;;611.65;;
46757;SDS011;32509;47.750;-3.396;2024-02-21T02:45:54;696.55;;;639.25;;
46757;SDS011;32509;47.750;-3.396;2024-02-21T02:48:20;686.40;;;629.85;;
46757;SDS011;32509;47.750;-3.396;2024-02-21T02:50:47;695.40;;;637.83;;
46757;SDS011;32509;47.750;-3.396;2024-02-21T02:53:14;684.28;;;627.65;;
46757;SDS011;32509;47.750;-3.396;2024-02-21T02:55:40;688.42;;;631.95;;
46757;SDS011;32509;47.750;-3.396;2024-02-21T02:58:06;681.70;;;624.78;;
46757;SDS011;32509;47.750;-3.396;2024-02-21T03:00:33;684.45;;;626.28;;
46757;SDS011;32509;47.750;-3.396;2024-02-21T03:03:01;669.95;;;613.45;;
46757;SDS011;32509;47.750;-3.396;2024-02-21T03:05:30;684.47;;;627.65;;
46757;SDS011;32509;47.750;-3.396;2024-02-21T03:07:56;679.60;;;623.10;;
46757;SDS011;32509;47.750;-3.396;2024-02-21T03:10:23;700.53;;;644.40;;
46757;SDS011;32509;47.750;-3.396;2024-02-21T03:12:49;668.22;;;611.15;;
46757;SDS011;32509;47.750;-3.396;2024-02-21T03:15:18;673.85;;;616.95;;
46757;SDS011;32509;47.750;-3.396;2024-02-21T03:17:44;671.25;;;615.28;;
46757;SDS011;32509;47.750;-3.396;2024-02-21T03:20:10;681.28;;;624.47;;
46757;SDS011;32509;47.750;-3.396;2024-02-21T03:22:37;671.70;;;614.47;;
46757;SDS011;32509;47.750;-3.396;2024-02-21T03:25:03;664.65;;;608.95;;
46757;SDS011;32509;47.750;-3.396;2024-02-21T03:27:29;672.58;;;616.58;;
46757;SDS011;32509;47.750;-3.396;2024-02-21T03:29:55;667.00;;;611.65;;
46757;SDS011;32509;47.750;-3.396;2024-02-21T03:32:21;681.05;;;622.72;;
46757;SDS011;32509;47.750;-3.396;2024-02-21T03:34:47;716.40;;;652.20;;
46757;SDS011;32509;47.750;-3.396;2024-02-21T03:37:14;711.05;;;647.25;;
46757;SDS011;32509;47.750;-3.396;2024-02-21T03:39:40;701.75;;;638.72;;
46757;SDS011;32509;47.750;-3.396;2024-02-21T03:42:06;686.00;;;623.55;;
46757;SDS011;32509;47.750;-3.396;2024-02-21T03:44:32;726.10;;;664.90;;
46757;SDS011;32509;47.750;-3.396;2024-02-21T03:46:59;724.47;;;662.63;;
46757;SDS011;32509;47.750;-3.396;2024-02-21T03:49:25;729.35;;;667.58;;
46757;SDS011;32509;47.750;-3.396;2024-02-21T03:51:51;722.92;;;661.03;;
46757;SDS011;32509;47.750;-3.396;2024-02-21T03:54:17;722.72;;;660.40;;
46757;SDS011;32509;47.750;-3.396;2024-02-21T03:56:43;725.75;;;664.33;;
46757;SDS011;32509;47.750;-3.396;2024-02-21T03:59:09;717.92;;;656.28;;
46757;SDS011;32509;47.750;-3.396;2024-02-21T04:01:35;730.65;;;669.08;;
46757;SDS011;32509;47.750;-3.396;2024-02-21T04:04:02;735.40;;;672.10;;
46757;SDS011;32509;47.750;-3.396;2024-02-21T04:06:28;706.78;;;645.40;;
46757;SDS011;32509;47.750;-3.396;2024-02-21T04:08:54;719.40;;;659.17;;
46757;SDS011;32509;47.750;-3.396;2024-02-21T04:11:20;711.30;;;650.38;;
46757;SDS011;32509;47.750;-3.396;2024-02-21T04:13:46;706.95;;;645.78;;
46757;SDS011;32509;47.750;-3.396;2024-02-21T04:16:15;703.83;;;643.08;;
46757;SDS011;32509;47.750;-3.396;2024-02-21T04:18:41;724.03;;;665.28;;
46757;SDS011;32509;47.750;-3.396;2024-02-21T04:21:08;700.78;;;641.80;;
46757;SDS011;32509;47.750;-3.396;2024-02-21T04:23:34;700.42;;;640.08;;
46757;SDS011;32509;47.750;-3.396;2024-02-21T04:26:00;694.80;;;635.35;;
46757;SDS011;32509;47.750;-3.396;2024-02-21T04:28:26;688.35;;;628.78;;
46757;SDS011;32509;47.750;-3.396;2024-02-21T04:30:52;703.80;;;644.78;;
46757;SDS011;32509;47.750;-3.396;2024-02-21T04:33:18;708.10;;;648.28;;
46757;SDS011;32509;47.750;-3.396;2024-02-21T04:35:44;710.92;;;650.92;;
46757;SDS011;32509;47.750;-3.396;2024-02-21T04:38:10;712.45;;;651.40;;
46757;SDS011;32509;47.750;-3.396;2024-02-21T04:40:36;702.83;;;641.95;;
46757;SDS011;32509;47.750;-3.396;2024-02-21T04:43:02;711.05;;;650.38;;
46757;SDS011;32509;47.750;-3.396;2024-02-21T04:45:29;709.40;;;647.33;;
46757;SDS011;32509;47.750;-3.396;2024-02-21T04:47:55;700.47;;;637.95;;
46757;SDS011;32509;47.750;-3.396;2024-02-21T04:50:21;721.50;;;659.33;;
46757;SDS011;32509;47.750;-3.396;2024-02-21T04:52:47;739.47;;;678.50;;
46757;SDS011;32509;47.750;-3.396;2024-02-21T04:55:13;712.35;;;652.53;;
46757;SDS011;32509;47.750;-3.396;2024-02-21T04:57:39;711.13;;;649.38;;
46757;SDS011;32509;47.750;-3.396;2024-02-21T05:00:06;713.00;;;650.97;;
46757;SDS011;32509;47.750;-3.396;2024-02-21T05:02:33;723.42;;;662.38;;
46757;SDS011;32509;47.750;-3.396;2024-02-21T05:04:59;728.25;;;667.22;;
46757;SDS011;32509;47.750;-3.396;2024-02-21T05:07:25;711.63;;;651.40;;
46757;SDS011;32509;47.750;-3.396;2024-02-21T05:09:51;706.75;;;646.95;;
46757;SDS011;32509;47.750;-3.396;2024-02-21T05:12:18;705.15;;;645.28;;
46757;SDS011;32509;47.750;-3.396;2024-02-21T05:14:44;708.65;;;649.63;;
46757;SDS011;32509;47.750;-3.396;2024-02-21T05:17:10;715.15;;;656.72;;
46757;SDS011;32509;47.750;-3.396;2024-02-21T05:19:36;712.03;;;653.15;;
46757;SDS011;32509;47.750;-3.396;2024-02-21T05:22:02;711.00;;;653.78;;
46757;SDS011;32509;47.750;-3.396;2024-02-21T05:24:28;688.90;;;632.55;;
46757;SDS011;32509;47.750;-3.396;2024-02-21T05:26:54;716.13;;;660.95;;
46757;SDS011;32509;47.750;-3.396;2024-02-21T05:29:20;734.25;;;677.45;;
46757;SDS011;32509;47.750;-3.396;2024-02-21T05:34:19;717.17;;;656.97;;
46757;SDS011;32509;47.750;-3.396;2024-02-21T05:36:45;736.15;;;676.10;;
46757;SDS011;32509;47.750;-3.396;2024-02-21T05:39:11;745.75;;;686.40;;
46757;SDS011;32509;47.750;-3.396;2024-02-21T05:41:37;724.47;;;665.78;;
46757;SDS011;32509;47.750;-3.396;2024-02-21T05:44:03;730.95;;;671.88;;
46757;SDS011;32509;47.750;-3.396;2024-02-21T05:46:30;716.17;;;656.72;;
46757;SDS011;32509;47.750;-3.396;2024-02-21T05:48:56;732.63;;;673.33;;
46757;SDS011;32509;47.750;-3.396;2024-02-21T05:51:22;734.75;;;676.53;;
46757;SDS011;32509;47.750;-3.396;2024-02-21T05:53:48;722.15;;;663.90;;
46757;SDS011;32509;47.750;-3.396;2024-02-21T05:56:14;721.75;;;663.45;;
46757;SDS011;32509;47.750;-3.396;2024-02-21T05:58:42;745.35;;;685.78;;
46757;SDS011;32509;47.750;-3.396;2024-02-21T06:01:08;723.45;;;667.08;;
46757;SDS011;32509;47.750;-3.396;2024-02-21T06:03:34;730.00;;;673.63;;
46757;SDS011;32509;47.750;-3.396;2024-02-21T06:06:01;730.70;;;670.50;;
46757;SDS011;32509;47.750;-3.396;2024-02-21T06:08:27;742.78;;;681.95;;
46757;SDS011;32509;47.750;-3.396;2024-02-21T06:10:53;734.35;;;673.83;;
46757;SDS011;32509;47.750;-3.396;2024-02-21T06:13:26;747.35;;;687.38;;
46757;SDS011;32509;47.750;-3.396;2024-02-21T06:15:52;717.47;;;658.38;;
46757;SDS011;32509;47.750;-3.396;2024-02-21T06:18:19;745.75;;;685.80;;
46757;SDS011;32509;47.750;-3.396;2024-02-21T06:20:45;713.30;;;656.80;;
46757;SDS011;32509;47.750;-3.396;2024-02-21T06:23:11;713.55;;;654.60;;
46757;SDS011;32509;47.750;-3.396;2024-02-21T06:25:38;725.13;;;667.05;;
46757;SDS011;32509;47.750;-3.396;2024-02-21T06:28:04;711.03;;;652.80;;
46757;SDS011;32509;47.750;-3.396;2024-02-21T06:30:30;733.25;;;674.30;;
46757;SDS011;32509;47.750;-3.396;2024-02-21T06:32:56;714.70;;;657.17;;
46757;SDS011;32509;47.750;-3.396;2024-02-21T06:35:24;691.42;;;636.65;;
46757;SDS011;32509;47.750;-3.396;2024-02-21T06:37:50;688.65;;;632.97;;
46757;SDS011;32509;47.750;-3.396;2024-02-21T06:40:17;711.30;;;652.97;;
46757;SDS011;32509;47.750;-3.396;2024-02-21T06:42:43;719.85;;;662.00;;
46757;SDS011;32509;47.750;-3.396;2024-02-21T06:45:09;717.15;;;658.92;;
46757;SDS011;32509;47.750;-3.396;2024-02-21T06:47:35;716.13;;;659.35;;
46757;SDS011;32509;47.750;-3.396;2024-02-21T06:50:01;708.85;;;651.70;;
46757;SDS011;32509;47.750;-3.396;2024-02-21T06:52:27;725.13;;;667.72;;
46757;SDS011;32509;47.750;-3.396;2024-02-21T06:54:53;707.85;;;651.35;;
46757;SDS011;32509;47.750;-3.396;2024-02-21T06:57:19;709.60;;;652.63;;
46757;SDS011;32509;47.750;-3.396;2024-02-21T06:59:45;706.33;;;650.67;;
46757;SDS011;32509;47.750;-3.396;2024-02-21T07:02:11;704.80;;;649.67;;
46757;SDS011;32509;47.750;-3.396;2024-02-21T07:04:38;714.72;;;658.25;;
46757;SDS011;32509;47.750;-3.396;2024-02-21T07:07:04;688.75;;;634.85;;
46757;SDS011;32509;47.750;-3.396;2024-02-21T07:09:30;690.67;;;637.42;;
46757;SDS011;32509;47.750;-3.396;2024-02-21T07:12:00;669.17;;;615.22;;
46757;SDS011;32509;47.750;-3.396;2024-02-21T07:14:28;696.75;;;642.70;;
46757;SDS011;32509;47.750;-3.396;2024-02-21T07:16:54;685.55;;;631.80;;
46757;SDS011;32509;47.750;-3.396;2024-02-21T07:19:22;668.60;;;615.05;;
46757;SDS011;32509;47.750;-3.396;2024-02-21T07:21:48;665.55;;;612.20;;
46757;SDS011;32509;47.750;-3.396;2024-02-21T07:24:14;685.80;;;631.80;;
46757;SDS011;32509;47.750;-3.396;2024-02-21T07:26:43;689.15;;;634.88;;
46757;SDS011;32509;47.750;-3.396;2024-02-21T07:29:09;669.40;;;616.38;;
46757;SDS011;32509;47.750;-3.396;2024-02-21T07:31:40;667.10;;;613.83;;
46757;SDS011;32509;47.750;-3.396;2024-02-21T07:34:06;655.72;;;602.00;;
46757;SDS011;32509;47.750;-3.396;2024-02-21T07:36:32;677.08;;;623.58;;
46757;SDS011;32509;47.750;-3.396;2024-02-21T07:38:58;665.20;;;611.03;;
46757;SDS011;32509;47.750;-3.396;2024-02-21T07:41:25;688.35;;;635.78;;
46757;SDS011;32509;47.750;-3.396;2024-02-21T07:43:51;682.05;;;629.97;;
46757;SDS011;32509;47.750;-3.396;2024-02-21T07:46:20;679.28;;;626.33;;
46757;SDS011;32509;47.750;-3.396;2024-02-21T07:48:46;666.05;;;613.15;;
46757;SDS011;32509;47.750;-3.396;2024-02-21T07:51:12;656.47;;;604.10;;
46757;SDS011;32509;47.750;-3.396;2024-02-21T07:53:38;664.72;;;611.92;;
46757;SDS011;32509;47.750;-3.396;2024-02-21T07:56:10;663.38;;;611.13;;
46757;SDS011;32509;47.750;-3.396;2024-02-21T07:58:36;676.05;;;623.33;;
46757;SDS011;32509;47.750;-3.396;2024-02-21T08:01:02;664.03;;;612.45;;
46757;SDS011;32509;47.750;-3.396;2024-02-21T08:03:28;661.13;;;609.75;;
46757;SDS011;32509;47.750;-3.396;2024-02-21T08:05:54;673.85;;;621.25;;
46757;SDS011;32509;47.750;-3.396;2024-02-21T08:08:20;676.42;;;623.90;;
46757;SDS011;32509;47.750;-3.396;2024-02-21T08:10:47;662.08;;;609.50;;
46757;SDS011;32509;47.750;-3.396;2024-02-21T08:13:13;660.15;;;607.85;;
46757;SDS011;32509;47.750;-3.396;2024-02-21T08:15:39;658.38;;;606.40;;
46757;SDS011;32509;47.750;-3.396;2024-02-21T08:26:47;28.05;;;25.10;;
46757;SDS011;32509;47.750;-3.396;2024-02-21T08:29:13;33.25;;;26.90;;
46757;SDS011;32509;47.750;-3.396;2024-02-21T08:31:39;31.02;;;26.27;;
46757;SDS011;32509;47.750;-3.396;2024-02-21T08:34:05;30.33;;;26.38;;
46757;SDS011;32509;47.750;-3.396;2024-02-21T08:36:31;27.95;;;25.45;;
46757;SDS011;32509;47.750;-3.396;2024-02-21T08:38:58;29.38;;;25.83;;
46757;SDS011;32509;47.750;-3.396;2024-02-21T08:41:24;28.67;;;26.13;;
46757;SDS011;32509;47.750;-3.396;2024-02-21T08:43:51;28.80;;;26.33;;
46757;SDS011;32509;47.750;-3.396;2024-02-21T08:46:18;27.38;;;24.83;;
46757;SDS011;32509;47.750;-3.396;2024-02-21T08:48:53;27.85;;;25.02;;
46757;SDS011;32509;47.750;-3.396;2024-02-21T08:51:19;25.48;;;23.27;;
46757;SDS011;32509;47.750;-3.396;2024-02-21T08:53:45;29.25;;;25.05;;
46757;SDS011;32509;47.750;-3.396;2024-02-21T08:56:12;26.63;;;23.58;;
46757;SDS011;32509;47.750;-3.396;2024-02-21T08:58:39;28.83;;;24.17;;
46757;SDS011;32509;47.750;-3.396;2024-02-21T09:01:06;27.85;;;25.25;;
46757;SDS011;32509;47.750;-3.396;2024-02-21T09:03:35;26.77;;;23.98;;
46757;SDS011;32509;47.750;-3.396;2024-02-21T09:06:02;26.25;;;23.77;;
46757;SDS011;32509;47.750;-3.396;2024-02-21T09:08:29;25.27;;;22.90;;
46757;SDS011;32509;47.750;-3.396;2024-02-21T09:10:55;29.33;;;23.02;;
46757;SDS011;32509;47.750;-3.396;2024-02-21T09:13:20;27.42;;;24.85;;
46757;SDS011;32509;47.750;-3.396;2024-02-21T09:15:49;26.17;;;23.67;;
46757;SDS011;32509;47.750;-3.396;2024-02-21T09:18:15;25.13;;;22.83;;
46757;SDS011;32509;47.750;-3.396;2024-02-21T09:20:42;27.27;;;24.52;;
46757;SDS011;32509;47.750;-3.396;2024-02-21T09:23:08;26.55;;;24.05;;
46757;SDS011;32509;47.750;-3.396;2024-02-21T09:25:34;27.25;;;24.48;;
46757;SDS011;32509;47.750;-3.396;2024-02-21T09:28:01;26.63;;;23.95;;
46757;SDS011;32509;47.750;-3.396;2024-02-21T09:30:28;25.73;;;23.67;;
46757;SDS011;32509;47.750;-3.396;2024-02-21T09:32:53;26.20;;;23.73;;
46757;SDS011;32509;47.750;-3.396;2024-02-21T09:35:19;26.27;;;23.88;;
46757;SDS011;32509;47.750;-3.396;2024-02-21T09:37:48;25.73;;;23.25;;
46757;SDS011;32509;47.750;-3.396;2024-02-21T09:40:15;26.30;;;23.75;;
46757;SDS011;32509;47.750;-3.396;2024-02-21T09:42:44;25.65;;;23.05;;
46757;SDS011;32509;47.750;-3.396;2024-02-21T09:50:29;25.10;;;22.45;;
46757;SDS011;32509;47.750;-3.396;2024-02-21T09:52:57;25.15;;;22.40;;
46757;SDS011;32509;47.750;-3.396;2024-02-21T09:55:26;24.55;;;22.20;;
46757;SDS011;32509;47.750;-3.396;2024-02-21T09:57:54;24.23;;;21.95;;
46757;SDS011;32509;47.750;-3.396;2024-02-21T10:00:22;24.92;;;22.90;;
46757;SDS011;32509;47.750;-3.396;2024-02-21T10:02:48;24.38;;;22.13;;
46757;SDS011;32509;47.750;-3.396;2024-02-21T10:05:17;25.48;;;23.05;;
46757;SDS011;32509;47.750;-3.396;2024-02-21T10:07:43;24.95;;;22.63;;
46757;SDS011;32509;47.750;-3.396;2024-02-21T10:10:09;23.70;;;21.45;;
46757;SDS011;32509;47.750;-3.396;2024-02-21T10:12:35;23.65;;;21.70;;
46757;SDS011;32509;47.750;-3.396;2024-02-21T10:15:04;25.75;;;22.98;;
46757;SDS011;32509;47.750;-3.396;2024-02-21T10:17:32;24.20;;;22.08;;
46757;SDS011;32509;47.750;-3.396;2024-02-21T10:20:10;24.23;;;22.35;;
46757;SDS011;32509;47.750;-3.396;2024-02-21T10:22:37;26.08;;;23.70;;
46757;SDS011;32509;47.750;-3.396;2024-02-21T10:25:10;29.10;;;23.33;;
46757;SDS011;32509;47.750;-3.396;2024-02-21T10:30:04;25.08;;;22.88;;
46757;SDS011;32509;47.750;-3.396;2024-02-21T10:32:32;24.20;;;21.90;;
46757;SDS011;32509;47.750;-3.396;2024-02-21T10:35:01;25.90;;;23.38;;
46757;SDS011;32509;47.750;-3.396;2024-02-21T10:37:31;24.88;;;22.45;;
46757;SDS011;32509;47.750;-3.396;2024-02-21T10:39:57;25.33;;;23.13;;
46757;SDS011;32509;47.750;-3.396;2024-02-21T10:42:23;27.30;;;23.33;;
46757;SDS011;32509;47.750;-3.396;2024-02-21T10:45:00;26.38;;;23.95;;
46757;SDS011;32509;47.750;-3.396;2024-02-21T10:47:29;25.50;;;23.27;;
46757;SDS011;32509;47.750;-3.396;2024-02-21T10:50:06;25.58;;;22.85;;
46757;SDS011;32509;47.750;-3.396;2024-02-21T10:55:16;24.67;;;22.25;;
46757;SDS011;32509;47.750;-3.396;2024-02-21T10:57:48;23.73;;;21.40;;
46757;SDS011;32509;47.750;-3.396;2024-02-21T11:00:15;26.42;;;23.88;;
46757;SDS011;32509;47.750;-3.396;2024-02-21T11:02:43;25.60;;;22.60;;
46757;SDS011;32509;47.750;-3.396;2024-02-21T11:05:11;24.80;;;22.50;;
46757;SDS011;32509;47.750;-3.396;2024-02-21T11:07:38;25.55;;;23.25;;
46757;SDS011;32509;47.750;-3.396;2024-02-21T11:10:04;26.40;;;24.27;;
46757;SDS011;32509;47.750;-3.396;2024-02-21T11:12:33;28.02;;;24.88;;
46757;SDS011;32509;47.750;-3.396;2024-02-21T11:15:07;25.27;;;22.98;;
46757;SDS011;32509;47.750;-3.396;2024-02-21T11:17:33;26.58;;;24.02;;
46757;SDS011;32509;47.750;-3.396;2024-02-21T11:20:10;25.88;;;23.08;;
46757;SDS011;32509;47.750;-3.396;2024-02-21T11:22:42;31.45;;;25.05;;
46757;SDS011;32509;47.750;-3.396;2024-02-21T11:25:08;27.55;;;22.75;;
46757;SDS011;32509;47.750;-3.396;2024-02-21T11:27:37;27.48;;;24.80;;
46757;SDS011;32509;47.750;-3.396;2024-02-21T11:30:04;26.75;;;24.10;;
46757;SDS011;32509;47.750;-3.396;2024-02-21T11:32:31;26.40;;;23.27;;
46757;SDS011;32509;47.750;-3.396;2024-02-21T11:34:57;25.40;;;22.60;;
46757;SDS011;32509;47.750;-3.396;2024-02-21T11:37:31;24.70;;;22.52;;
46757;SDS011;32509;47.750;-3.396;2024-02-21T11:40:02;25.45;;;22.90;;
46757;SDS011;32509;47.750;-3.396;2024-02-21T11:42:28;24.52;;;22.38;;
46757;SDS011;32509;47.750;-3.396;2024-02-21T11:44:55;27.88;;;24.40;;
46757;SDS011;32509;47.750;-3.396;2024-02-21T11:47:25;36.83;;;24.48;;
46757;SDS011;32509;47.750;-3.396;2024-02-21T11:49:53;28.88;;;22.73;;
46757;SDS011;32509;47.750;-3.396;2024-02-21T11:52:21;28.65;;;24.35;;
46757;SDS011;32509;47.750;-3.396;2024-02-21T11:54:50;27.58;;;24.90;;
46757;SDS011;32509;47.750;-3.396;2024-02-21T11:57:17;28.25;;;24.48;;
46757;SDS011;32509;47.750;-3.396;2024-02-21T11:59:44;26.35;;;22.05;;
46757;SDS011;32509;47.750;-3.396;2024-02-21T12:02:10;26.85;;;24.40;;
46757;SDS011;32509;47.750;-3.396;2024-02-21T12:04:37;25.60;;;23.35;;
46757;SDS011;32509;47.750;-3.396;2024-02-21T12:07:03;38.28;;;25.38;;
46757;SDS011;32509;47.750;-3.396;2024-02-21T12:09:30;29.23;;;22.83;;
46757;SDS011;32509;47.750;-3.396;2024-02-21T12:14:31;33.15;;;24.60;;
46757;SDS011;32509;47.750;-3.396;2024-02-21T12:16:58;27.08;;;24.23;;
46757;SDS011;32509;47.750;-3.396;2024-02-21T12:19:25;31.95;;;24.00;;
46757;SDS011;32509;47.750;-3.396;2024-02-21T12:21:51;24.63;;;22.10;;
46757;SDS011;32509;47.750;-3.396;2024-02-21T12:24:26;28.02;;;23.58;;
46757;SDS011;32509;47.750;-3.396;2024-02-21T12:26:53;25.02;;;21.95;;
46757;SDS011;32509;47.750;-3.396;2024-02-21T12:29:22;25.73;;;23.15;;
46757;SDS011;32509;47.750;-3.396;2024-02-21T12:31:51;27.05;;;21.63;;
46757;SDS011;32509;47.750;-3.396;2024-02-21T12:34:19;32.88;;;23.08;;
46757;SDS011;32509;47.750;-3.396;2024-02-21T12:36:45;30.20;;;22.23;;
46757;SDS011;32509;47.750;-3.396;2024-02-21T12:39:13;28.58;;;22.13;;
46757;SDS011;32509;47.750;-3.396;2024-02-21T12:41:39;28.88;;;21.75;;
46757;SDS011;32509;47.750;-3.396;2024-02-21T17:10:05;15.55;;;13.43;;
46757;SDS011;32509;47.750;-3.396;2024-02-21T17:12:31;21.42;;;15.43;;
46757;SDS011;32509;47.750;-3.396;2024-02-21T17:14:58;20.77;;;15.65;;
46757;SDS011;32509;47.750;-3.396;2024-02-21T17:17:24;20.52;;;16.63;;
46757;SDS011;32509;47.750;-3.396;2024-02-21T17:19:49;23.33;;;17.63;;
46757;SDS011;32509;47.750;-3.396;2024-02-21T17:22:15;22.50;;;17.02;;
46757;SDS011;32509;47.750;-3.396;2024-02-21T17:24:41;21.90;;;17.00;;
46757;SDS011;32509;47.750;-3.396;2024-02-21T17:27:07;20.05;;;17.05;;
46757;SDS011;32509;47.750;-3.396;2024-02-21T17:29:33;19.52;;;17.70;;
46757;SDS011;32509;47.750;-3.396;2024-02-21T17:31:59;21.02;;;18.23;;
46757;SDS011;32509;47.750;-3.396;2024-02-21T17:34:25;20.48;;;18.27;;
46757;SDS011;32509;47.750;-3.396;2024-02-21T17:36:52;21.50;;;18.00;;
46757;SDS011;32509;47.750;-3.396;2024-02-21T17:39:17;22.95;;;17.30;;
46757;SDS011;32509;47.750;-3.396;2024-02-21T17:41:44;18.17;;;16.73;;
46757;SDS011;32509;47.750;-3.396;2024-02-21T17:44:10;24.63;;;18.95;;
46757;SDS011;32509;47.750;-3.396;2024-02-21T17:46:40;19.80;;;15.48;;
46757;SDS011;32509;47.750;-3.396;2024-02-21T17:49:09;16.35;;;14.80;;
46757;SDS011;32509;47.750;-3.396;2024-02-21T17:51:35;19.98;;;15.50;;
46757;SDS011;32509;47.750;-3.396;2024-02-21T17:54:02;20.38;;;17.85;;
46757;SDS011;32509;47.750;-3.396;2024-02-21T17:56:28;20.45;;;16.10;;
46757;SDS011;32509;47.750;-3.396;2024-02-21T17:58:53;18.25;;;16.33;;
46757;SDS011;32509;47.750;-3.396;2024-02-21T18:01:19;15.75;;;14.15;;
46757;SDS011;32509;47.750;-3.396;2024-02-21T18:03:45;15.95;;;14.55;;
46757;SDS011;32509;47.750;-3.396;2024-02-21T18:06:11;15.35;;;13.82;;
46757;SDS011;32509;47.750;-3.396;2024-02-21T18:08:36;15.13;;;12.57;;
46757;SDS011;32509;47.750;-3.396;2024-02-21T18:11:02;15.55;;;14.05;;
46757;SDS011;32509;47.750;-3.396;2024-02-21T18:13:28;14.75;;;13.30;;
46757;SDS011;32509;47.750;-3.396;2024-02-21T18:16:02;15.32;;;13.85;;
46757;SDS011;32509;47.750;-3.396;2024-02-21T18:18:29;16.48;;;14.77;;
46757;SDS011;32509;47.750;-3.396;2024-02-21T18:20:55;23.55;;;15.43;;
46757;SDS011;32509;47.750;-3.396;2024-02-21T18:23:21;21.25;;;16.42;;
46757;SDS011;32509;47.750;-3.396;2024-02-21T18:25:47;16.67;;;13.57;;
46757;SDS011;32509;47.750;-3.396;2024-02-21T18:28:13;15.75;;;14.43;;
46757;SDS011;32509;47.750;-3.396;2024-02-21T18:30:39;16.67;;;14.95;;
46757;SDS011;32509;47.750;-3.396;2024-02-21T18:33:05;19.27;;;15.43;;
46757;SDS011;32509;47.750;-3.396;2024-02-21T18:35:31;17.30;;;15.68;;
46757;SDS011;32509;47.750;-3.396;2024-02-21T18:37:57;26.65;;;15.05;;
46757;SDS011;32509;47.750;-3.396;2024-02-21T18:40:23;18.70;;;15.40;;
46757;SDS011;32509;47.750;-3.396;2024-02-21T18:42:49;16.55;;;14.85;;